Warning: Javascript must be enabled to use all the features on this page!


Page Loading - Please Wait...

Click to hideNews Bulletins
  • Have your voice heard. Have a few minutes? We're surveying users about their experience with Water Data for the Nation (WDFN). Please take a few minutes to complete our online survey.
  • See the Water Data for the Nation Blog for the latest news and updates.

Peak Streamflow for the Nation

USGS 03083500 Youghiogheny River at Sutersville, PA

Allegheny County, Pennsylvania
Hydrologic Unit Code 05020006
Latitude  40°14'24.8", Longitude  79°48'24.1" NAD83
Drainage area 1,715  square miles
Gage datum 733.36 feet above NGVD29
Output formats
Table
Graph
Tab-separated file
peakfq (watstore) format
Reselect output format
Water
Year
Date Gage
Height
(feet)
Stream-
flow
(cfs)
1921 1921-03-03 12.803 22,0005
1922 1921-11-29 19.103 47,2005
1923 1923-02-14 11.403 17,6005
1924 1924-03-30 27.503 80,8005
1925 1925-02-08 12.263 20,4006
1926 1926-02-23 12.503 21,1006
1927 1927-01-22 14.503 28,5006
1928 1927-10-20 18.503 45,0006
1929 1929-02-27 12.173 20,5006
1930 1929-10-03 16.903 36,2006
1931 1931-04-04 14.003 26,7006
1932 1932-04-01 15.303,5 31,5006
1933 1933-03-14 21.063 56,9006
1934 1934-03-04   31,0006
1935 1935-01-22 15.303 30,8006
1936 1936-03-18 30.653 100,0006
1937 1937-04-26 22.803,5 59,0006
1938 1937-10-29 20.303,5 49,0006
1939 1939-02-04 18.503 42,0006
1940 1940-03-31 18.40 41,6006
1941 1941-06-05 27.34 78,0006
1942 1942-04-10 14.46 29,4006
1943 1942-12-30 19.86 49,5006
1944 1944-03-24 12.15 21,8006
1945 1945-03-07 18.84 45,3006
1946 1946-06-02 14.61 29,9006
1947 1947-06-08 11.59 20,0006
1948 1948-04-14 17.13 36,8006
1949 1949-01-27 13.38 24,3006
1950 1950-01-07 11.43 18,1006
1951 1951-06-14 14.99 29,5006
1952 1952-01-27 16.07 33,2006
1953 1953-03-24 10.44 15,3006
1954 1954-03-02 12.02 19,9006
1955 1954-10-16 32.50 108,0006
1956 1956-08-06 21.30 52,8006
1957 1956-12-15 13.18 23,4006
1958 1958-05-06 12.66 21,9006
1959 1959-02-11 14.53 27,6006
1960 1960-03-31 17.60 38,4006
1961 1961-02-26 15.63 31,2006
1962 1962-03-22 12.64 21,6006
1963 1963-03-05 17.58 38,4006
1964 1964-03-06 16.46 34,3006
1965 1965-01-24 10.77 16,2006
1966 1966-02-14 19.27 44,6006
1967 1967-03-06 23.15 61,2006
1968 1968-05-24 14.05 26,2006
1969 1969-08-20 16.19 33,3006
1970 1970-04-03 17.93 39,5006
1971 1971-09-14 24.70 68,2006
1972 1972-06-23 29.70 83,0006
1973 1972-12-09 16.13 33,1006
1974 1974-01-11 19.96 47,3006
1975 1975-04-26 16.08 32,9006
1976 1976-02-17 11.46 18,2006
1977 1977-02-25 13.64 24,8006
1978 1978-01-26 21.56 54,0006
1979 1979-03-05 16.512 34,5006
1980 1980-04-09 12.69 21,9006
1981 1981-04-13 18.79 42,8006
1982 1982-03-12 10.512 15,5006
1983 1983-04-25 10.51 15,4006
1984 1984-04-05 18.97 43,6006
1985 1985-04-01 13.76 25,2006
1986 1985-11-27 20.62 50,0006
1987 1986-11-09 10.26 14,7006
1988 1988-03-05 14.01 26,0006
1989 1989-02-16 13.58 24,6006
1990 1990-02-10 10.602 15,7006
1991 1990-12-19 15.98 32,5006
1992 1991-12-03 10.64 15,8006
1993 1993-03-31 13.16 23,3006
1994 1994-03-22 15.38 30,5006
1995 1994-12-11 8.84 10,8006
1996 1996-01-19 28.19 84,1006
1997 1997-05-26 15.29 29,5006
1998 1998-04-10 13.13 22,4006
1999 1999-04-10 15.17 29,1006
2000 2000-02-19 17.382 37,0006
2001 2001-01-31 10.44 13,7006
2002 2002-03-21 14.13 21,7006
2003 2003-06-04 15.39 27,6006
2004 2004-09-18 20.72 46,4006
2005 2005-01-06 20.78 45,2006
2006 2005-11-30 14.10 24,1006
2007 2007-03-15 12.99 22,3006
2008 2007-12-14 15.55 29,1006
2009 2008-12-20 16.72 32,3006
2010 2010-03-14 20.94 46,4006
2011 2011-03-11 14.84 27,2006
2012 2011-11-23 14.28 25,7006
2013 2012-10-30 17.59 34,8006
2014 2014-05-16 15.86 30,0006
2015 2015-03-04 20.66 45,3006
2016 2016-02-04 10.41 14,9006
2017 2016-12-18 16.62 29,7006
2018 2018-09-10 26.54 74,0006
2019 2019-02-08 16.57 31,1006
2020 2020-02-11 12.58 18,8006
2021 2021-03-01 20.21 44,9006
?
  Peak Gage-Height Qualification Codes.
?
  Peak Streamflow Qualification Codes.